sensor_id;sensor_type;location;lat;lon;timestamp;temperature;humidity
15259;DHT22;34462;51.368;12.364;2022-10-19T00:01:16;10.20;99.90
15259;DHT22;34462;51.368;12.364;2022-10-19T00:03:48;10.20;99.90
15259;DHT22;34462;51.368;12.364;2022-10-19T00:06:20;10.10;99.90
15259;DHT22;34462;51.368;12.364;2022-10-19T00:08:51;10.10;99.90
15259;DHT22;34462;51.368;12.364;2022-10-19T00:11:20;10.10;99.90
15259;DHT22;34462;51.368;12.364;2022-10-19T00:13:49;10.00;99.90
15259;DHT22;34462;51.368;12.364;2022-10-19T00:16:17;10.00;99.90
15259;DHT22;34462;51.368;12.364;2022-10-19T00:18:47;10.10;99.90
15259;DHT22;34462;51.368;12.364;2022-10-19T00:21:17;10.00;99.90
15259;DHT22;34462;51.368;12.364;2022-10-19T00:23:46;10.00;99.90
15259;DHT22;34462;51.368;12.364;2022-10-19T00:26:15;10.00;99.90
15259;DHT22;34462;51.368;12.364;2022-10-19T00:28:44;9.90;99.90
15259;DHT22;34462;51.368;12.364;2022-10-19T00:31:14;9.80;99.90
15259;DHT22;34462;51.368;12.364;2022-10-19T00:33:44;9.90;99.90
15259;DHT22;34462;51.368;12.364;2022-10-19T00:36:20;9.90;99.90
15259;DHT22;34462;51.368;12.364;2022-10-19T00:38:50;9.80;99.90
15259;DHT22;34462;51.368;12.364;2022-10-19T00:41:20;9.80;99.90
15259;DHT22;34462;51.368;12.364;2022-10-19T00:43:52;9.80;99.90
15259;DHT22;34462;51.368;12.364;2022-10-19T00:46:22;9.80;99.90
15259;DHT22;34462;51.368;12.364;2022-10-19T00:48:53;9.80;99.90
15259;DHT22;34462;51.368;12.364;2022-10-19T00:51:29;9.80;99.90
15259;DHT22;34462;51.368;12.364;2022-10-19T00:54:00;9.70;99.90
15259;DHT22;34462;51.368;12.364;2022-10-19T00:56:31;9.70;99.90
15259;DHT22;34462;51.368;12.364;2022-10-19T00:59:02;9.70;99.90
15259;DHT22;34462;51.368;12.364;2022-10-19T01:01:32;9.70;99.90
15259;DHT22;34462;51.368;12.364;2022-10-19T01:04:01;9.70;99.90
15259;DHT22;34462;51.368;12.364;2022-10-19T01:06:32;9.70;99.90
15259;DHT22;34462;51.368;12.364;2022-10-19T01:09:00;9.60;99.90
15259;DHT22;34462;51.368;12.364;2022-10-19T01:11:35;9.60;99.90
15259;DHT22;34462;51.368;12.364;2022-10-19T01:14:25;9.60;99.90
15259;DHT22;34462;51.368;12.364;2022-10-19T01:17:02;9.60;99.90
15259;DHT22;34462;51.368;12.364;2022-10-19T01:20:06;9.60;99.90
15259;DHT22;34462;51.368;12.364;2022-10-19T01:23:23;9.70;99.90
15259;DHT22;34462;51.368;12.364;2022-10-19T01:26:17;9.80;99.90
15259;DHT22;34462;51.368;12.364;2022-10-19T01:29:07;9.90;99.90
15259;DHT22;34462;51.368;12.364;2022-10-19T01:31:50;10.00;99.90
15259;DHT22;34462;51.368;12.364;2022-10-19T01:34:30;10.00;99.90
15259;DHT22;34462;51.368;12.364;2022-10-19T01:37:07;10.10;99.90
15259;DHT22;34462;51.368;12.364;2022-10-19T01:39:48;10.10;99.90
15259;DHT22;34462;51.368;12.364;2022-10-19T01:42:25;10.10;99.90
15259;DHT22;34462;51.368;12.364;2022-10-19T01:45:02;10.10;99.90
15259;DHT22;34462;51.368;12.364;2022-10-19T01:47:40;10.00;99.90
15259;DHT22;34462;51.368;12.364;2022-10-19T01:50:16;10.10;99.90
15259;DHT22;34462;51.368;12.364;2022-10-19T01:52:51;10.10;99.90
15259;DHT22;34462;51.368;12.364;2022-10-19T01:55:23;10.20;99.90
15259;DHT22;34462;51.368;12.364;2022-10-19T01:57:57;10.20;99.90
15259;DHT22;34462;51.368;12.364;2022-10-19T02:00:34;10.20;99.90
15259;DHT22;34462;51.368;12.364;2022-10-19T02:03:08;10.20;99.90
15259;DHT22;34462;51.368;12.364;2022-10-19T02:05:38;10.30;99.90
15259;DHT22;34462;51.368;12.364;2022-10-19T02:08:12;10.30;99.90
15259;DHT22;34462;51.368;12.364;2022-10-19T02:10:44;10.40;99.90
15259;DHT22;34462;51.368;12.364;2022-10-19T02:13:14;10.30;99.90
15259;DHT22;34462;51.368;12.364;2022-10-19T02:15:45;10.30;99.90
15259;DHT22;34462;51.368;12.364;2022-10-19T02:18:21;10.30;99.90
15259;DHT22;34462;51.368;12.364;2022-10-19T02:20:54;10.30;99.90
15259;DHT22;34462;51.368;12.364;2022-10-19T02:23:25;10.30;99.90
15259;DHT22;34462;51.368;12.364;2022-10-19T02:25:54;10.30;99.90
15259;DHT22;34462;51.368;12.364;2022-10-19T02:28:23;10.30;99.90
15259;DHT22;34462;51.368;12.364;2022-10-19T02:30:53;10.50;99.90
15259;DHT22;34462;51.368;12.364;2022-10-19T02:33:22;10.20;99.90
15259;DHT22;34462;51.368;12.364;2022-10-19T02:35:50;10.10;99.90
15259;DHT22;34462;51.368;12.364;2022-10-19T02:38:21;10.10;99.90
15259;DHT22;34462;51.368;12.364;2022-10-19T02:40:56;10.00;99.90
15259;DHT22;34462;51.368;12.364;2022-10-19T02:43:32;10.00;99.90
15259;DHT22;34462;51.368;12.364;2022-10-19T02:46:06;9.90;99.90
15259;DHT22;34462;51.368;12.364;2022-10-19T02:48:39;9.90;99.90
15259;DHT22;34462;51.368;12.364;2022-10-19T02:51:27;9.80;99.90
15259;DHT22;34462;51.368;12.364;2022-10-19T02:53:56;9.70;99.90
15259;DHT22;34462;51.368;12.364;2022-10-19T02:56:30;9.70;99.90
15259;DHT22;34462;51.368;12.364;2022-10-19T02:58:58;9.60;99.90
15259;DHT22;34462;51.368;12.364;2022-10-19T03:01:26;9.50;99.90
15259;DHT22;34462;51.368;12.364;2022-10-19T03:03:56;9.50;99.90
15259;DHT22;34462;51.368;12.364;2022-10-19T03:06:24;9.50;99.90
15259;DHT22;34462;51.368;12.364;2022-10-19T03:08:52;9.50;99.90
15259;DHT22;34462;51.368;12.364;2022-10-19T03:11:20;9.50;99.90
15259;DHT22;34462;51.368;12.364;2022-10-19T03:13:48;9.50;99.90
15259;DHT22;34462;51.368;12.364;2022-10-19T03:16:16;9.50;99.90
15259;DHT22;34462;51.368;12.364;2022-10-19T03:18:46;9.50;99.90
15259;DHT22;34462;51.368;12.364;2022-10-19T03:21:16;9.60;99.90
15259;DHT22;34462;51.368;12.364;2022-10-19T03:23:45;9.50;99.90
15259;DHT22;34462;51.368;12.364;2022-10-19T03:26:15;9.60;99.90
15259;DHT22;34462;51.368;12.364;2022-10-19T03:28:43;9.60;99.90
15259;DHT22;34462;51.368;12.364;2022-10-19T03:31:12;9.50;99.90
15259;DHT22;34462;51.368;12.364;2022-10-19T03:33:40;9.50;99.90
15259;DHT22;34462;51.368;12.364;2022-10-19T03:36:21;9.50;99.90
15259;DHT22;34462;51.368;12.364;2022-10-19T03:38:51;9.40;99.90
15259;DHT22;34462;51.368;12.364;2022-10-19T03:41:21;9.50;99.90
15259;DHT22;34462;51.368;12.364;2022-10-19T03:43:51;9.40;99.90
15259;DHT22;34462;51.368;12.364;2022-10-19T03:46:19;9.40;99.90
15259;DHT22;34462;51.368;12.364;2022-10-19T03:48:48;9.40;99.90
15259;DHT22;34462;51.368;12.364;2022-10-19T03:51:19;9.40;99.90
15259;DHT22;34462;51.368;12.364;2022-10-19T03:53:51;9.30;99.90
15259;DHT22;34462;51.368;12.364;2022-10-19T03:56:22;9.40;99.90
15259;DHT22;34462;51.368;12.364;2022-10-19T03:58:53;9.30;99.90
15259;DHT22;34462;51.368;12.364;2022-10-19T04:01:24;9.30;99.90
15259;DHT22;34462;51.368;12.364;2022-10-19T04:03:54;9.30;99.90
15259;DHT22;34462;51.368;12.364;2022-10-19T04:06:26;9.20;99.90
15259;DHT22;34462;51.368;12.364;2022-10-19T04:08:56;9.10;99.90
15259;DHT22;34462;51.368;12.364;2022-10-19T04:11:27;9.10;99.90
15259;DHT22;34462;51.368;12.364;2022-10-19T04:13:57;9.10;99.90
15259;DHT22;34462;51.368;12.364;2022-10-19T04:16:27;9.10;99.90
15259;DHT22;34462;51.368;12.364;2022-10-19T04:18:57;9.10;99.90
15259;DHT22;34462;51.368;12.364;2022-10-19T04:21:29;9.10;99.90
15259;DHT22;34462;51.368;12.364;2022-10-19T04:24:00;9.10;99.90
15259;DHT22;34462;51.368;12.364;2022-10-19T04:26:31;9.10;99.90
15259;DHT22;34462;51.368;12.364;2022-10-19T04:29:00;9.10;99.90
15259;DHT22;34462;51.368;12.364;2022-10-19T04:31:28;9.10;99.90
15259;DHT22;34462;51.368;12.364;2022-10-19T04:33:56;9.00;99.90
15259;DHT22;34462;51.368;12.364;2022-10-19T04:36:24;9.00;99.90
15259;DHT22;34462;51.368;12.364;2022-10-19T04:38:54;9.00;99.90
15259;DHT22;34462;51.368;12.364;2022-10-19T04:41:22;9.00;99.90
15259;DHT22;34462;51.368;12.364;2022-10-19T04:43:54;9.10;99.90
15259;DHT22;34462;51.368;12.364;2022-10-19T04:46:24;9.00;99.90
15259;DHT22;34462;51.368;12.364;2022-10-19T04:48:54;9.10;99.90
15259;DHT22;34462;51.368;12.364;2022-10-19T04:51:24;9.00;99.90
15259;DHT22;34462;51.368;12.364;2022-10-19T04:53:53;9.00;99.90
15259;DHT22;34462;51.368;12.364;2022-10-19T04:56:26;9.10;99.90
15259;DHT22;34462;51.368;12.364;2022-10-19T04:58:55;9.00;99.90
15259;DHT22;34462;51.368;12.364;2022-10-19T05:01:26;9.00;99.90
15259;DHT22;34462;51.368;12.364;2022-10-19T05:03:56;9.00;99.90
15259;DHT22;34462;51.368;12.364;2022-10-19T05:06:26;8.90;99.90
15259;DHT22;34462;51.368;12.364;2022-10-19T05:08:57;8.90;99.90
15259;DHT22;34462;51.368;12.364;2022-10-19T05:11:25;8.80;99.90
15259;DHT22;34462;51.368;12.364;2022-10-19T05:13:54;8.80;99.90
15259;DHT22;34462;51.368;12.364;2022-10-19T05:16:24;8.90;99.90
15259;DHT22;34462;51.368;12.364;2022-10-19T05:18:53;8.80;99.90
15259;DHT22;34462;51.368;12.364;2022-10-19T05:21:25;8.80;99.90
15259;DHT22;34462;51.368;12.364;2022-10-19T05:23:56;8.80;99.90
15259;DHT22;34462;51.368;12.364;2022-10-19T05:26:26;8.90;99.90
15259;DHT22;34462;51.368;12.364;2022-10-19T05:28:57;9.00;99.90
15259;DHT22;34462;51.368;12.364;2022-10-19T05:31:29;9.10;99.90
15259;DHT22;34462;51.368;12.364;2022-10-19T05:33:58;9.20;99.90
15259;DHT22;34462;51.368;12.364;2022-10-19T05:36:29;9.20;99.90
15259;DHT22;34462;51.368;12.364;2022-10-19T05:39:03;9.30;99.90
15259;DHT22;34462;51.368;12.364;2022-10-19T05:41:32;9.30;99.90
15259;DHT22;34462;51.368;12.364;2022-10-19T05:44:02;9.40;99.90
15259;DHT22;34462;51.368;12.364;2022-10-19T05:46:31;9.40;99.90
15259;DHT22;34462;51.368;12.364;2022-10-19T05:49:00;9.40;99.90
15259;DHT22;34462;51.368;12.364;2022-10-19T05:51:28;9.40;99.90
15259;DHT22;34462;51.368;12.364;2022-10-19T05:53:56;9.50;99.90
15259;DHT22;34462;51.368;12.364;2022-10-19T05:56:27;9.50;99.90
15259;DHT22;34462;51.368;12.364;2022-10-19T05:58:58;9.50;99.90
15259;DHT22;34462;51.368;12.364;2022-10-19T06:01:28;9.60;99.90
15259;DHT22;34462;51.368;12.364;2022-10-19T06:03:57;9.60;99.90
15259;DHT22;34462;51.368;12.364;2022-10-19T06:06:27;9.60;99.90
15259;DHT22;34462;51.368;12.364;2022-10-19T06:08:57;9.60;99.90
15259;DHT22;34462;51.368;12.364;2022-10-19T06:11:28;9.60;99.90
15259;DHT22;34462;51.368;12.364;2022-10-19T06:14:01;9.60;99.90
15259;DHT22;34462;51.368;12.364;2022-10-19T06:16:31;9.70;99.90
15259;DHT22;34462;51.368;12.364;2022-10-19T06:19:00;9.70;99.90
15259;DHT22;34462;51.368;12.364;2022-10-19T06:21:29;9.70;99.90
15259;DHT22;34462;51.368;12.364;2022-10-19T06:24:00;9.70;99.90
15259;DHT22;34462;51.368;12.364;2022-10-19T06:26:32;9.80;99.90
15259;DHT22;34462;51.368;12.364;2022-10-19T06:29:02;9.90;99.90
15259;DHT22;34462;51.368;12.364;2022-10-19T06:31:32;9.90;99.90
15259;DHT22;34462;51.368;12.364;2022-10-19T06:34:02;10.00;99.90
15259;DHT22;34462;51.368;12.364;2022-10-19T06:36:31;10.00;99.90
15259;DHT22;34462;51.368;12.364;2022-10-19T06:39:00;10.00;99.90
15259;DHT22;34462;51.368;12.364;2022-10-19T06:41:29;10.10;99.90
15259;DHT22;34462;51.368;12.364;2022-10-19T06:43:59;10.20;99.90
15259;DHT22;34462;51.368;12.364;2022-10-19T06:46:28;10.20;99.90
15259;DHT22;34462;51.368;12.364;2022-10-19T06:48:59;10.20;99.90
15259;DHT22;34462;51.368;12.364;2022-10-19T06:51:29;10.30;99.90
15259;DHT22;34462;51.368;12.364;2022-10-19T06:53:59;10.30;99.90
15259;DHT22;34462;51.368;12.364;2022-10-19T06:56:27;10.40;99.90
15259;DHT22;34462;51.368;12.364;2022-10-19T06:58:57;10.40;99.90
15259;DHT22;34462;51.368;12.364;2022-10-19T07:01:25;10.60;99.90
15259;DHT22;34462;51.368;12.364;2022-10-19T07:03:54;10.50;99.90
15259;DHT22;34462;51.368;12.364;2022-10-19T07:06:22;10.50;99.90
15259;DHT22;34462;51.368;12.364;2022-10-19T07:08:51;10.50;99.90
15259;DHT22;34462;51.368;12.364;2022-10-19T07:11:20;10.60;99.90
15259;DHT22;34462;51.368;12.364;2022-10-19T07:13:49;10.60;99.90
15259;DHT22;34462;51.368;12.364;2022-10-19T07:16:20;10.70;99.90
15259;DHT22;34462;51.368;12.364;2022-10-19T07:18:50;10.70;99.90
15259;DHT22;34462;51.368;12.364;2022-10-19T07:21:21;10.70;99.90
15259;DHT22;34462;51.368;12.364;2022-10-19T07:23:50;10.80;99.90
15259;DHT22;34462;51.368;12.364;2022-10-19T07:26:21;10.90;99.90
15259;DHT22;34462;51.368;12.364;2022-10-19T07:28:54;11.00;99.90
15259;DHT22;34462;51.368;12.364;2022-10-19T07:31:25;10.90;99.90
15259;DHT22;34462;51.368;12.364;2022-10-19T07:33:56;11.00;99.90
15259;DHT22;34462;51.368;12.364;2022-10-19T07:36:26;11.10;99.90
15259;DHT22;34462;51.368;12.364;2022-10-19T07:38:56;11.20;99.90
15259;DHT22;34462;51.368;12.364;2022-10-19T07:41:25;11.20;99.90
15259;DHT22;34462;51.368;12.364;2022-10-19T07:43:53;11.30;99.90
15259;DHT22;34462;51.368;12.364;2022-10-19T07:46:25;11.40;99.90
15259;DHT22;34462;51.368;12.364;2022-10-19T07:48:59;11.40;99.90
15259;DHT22;34462;51.368;12.364;2022-10-19T07:51:27;11.40;99.90
15259;DHT22;34462;51.368;12.364;2022-10-19T07:53:56;11.50;99.90
15259;DHT22;34462;51.368;12.364;2022-10-19T07:56:26;11.60;99.90
15259;DHT22;34462;51.368;12.364;2022-10-19T07:58:56;11.70;99.90
15259;DHT22;34462;51.368;12.364;2022-10-19T08:01:28;11.70;99.90
15259;DHT22;34462;51.368;12.364;2022-10-19T08:03:59;11.70;99.90
15259;DHT22;34462;51.368;12.364;2022-10-19T08:06:47;11.70;99.90
15259;DHT22;34462;51.368;12.364;2022-10-19T08:09:16;11.70;99.90
15259;DHT22;34462;51.368;12.364;2022-10-19T08:12:04;11.70;99.90
15259;DHT22;34462;51.368;12.364;2022-10-19T08:14:36;11.80;99.90
15259;DHT22;34462;51.368;12.364;2022-10-19T08:17:06;11.90;99.90
15259;DHT22;34462;51.368;12.364;2022-10-19T08:19:37;11.90;99.90
15259;DHT22;34462;51.368;12.364;2022-10-19T08:22:09;11.90;99.90
15259;DHT22;34462;51.368;12.364;2022-10-19T08:24:37;12.00;99.90
15259;DHT22;34462;51.368;12.364;2022-10-19T08:27:05;12.00;99.90
15259;DHT22;34462;51.368;12.364;2022-10-19T08:29:33;12.00;99.90
15259;DHT22;34462;51.368;12.364;2022-10-19T08:32:01;12.10;99.90
15259;DHT22;34462;51.368;12.364;2022-10-19T08:34:30;12.20;99.90
15259;DHT22;34462;51.368;12.364;2022-10-19T08:37:00;12.30;99.90
15259;DHT22;34462;51.368;12.364;2022-10-19T08:39:45;12.30;99.90
15259;DHT22;34462;51.368;12.364;2022-10-19T08:42:15;12.30;99.90
15259;DHT22;34462;51.368;12.364;2022-10-19T08:45:06;12.40;99.90
15259;DHT22;34462;51.368;12.364;2022-10-19T08:47:58;12.40;99.90
15259;DHT22;34462;51.368;12.364;2022-10-19T08:50:44;12.60;99.90
15259;DHT22;34462;51.368;12.364;2022-10-19T08:53:16;12.60;99.90
15259;DHT22;34462;51.368;12.364;2022-10-19T08:55:57;12.70;99.90
15259;DHT22;34462;51.368;12.364;2022-10-19T08:58:54;12.80;99.90
15259;DHT22;34462;51.368;12.364;2022-10-19T09:01:35;12.90;99.90
15259;DHT22;34462;51.368;12.364;2022-10-19T09:04:13;13.00;99.90
15259;DHT22;34462;51.368;12.364;2022-10-19T09:06:55;13.10;99.90
15259;DHT22;34462;51.368;12.364;2022-10-19T09:09:41;13.20;99.90
15259;DHT22;34462;51.368;12.364;2022-10-19T09:12:16;13.30;99.90
15259;DHT22;34462;51.368;12.364;2022-10-19T09:14:54;13.40;99.90
15259;DHT22;34462;51.368;12.364;2022-10-19T09:17:27;13.50;99.90
15259;DHT22;34462;51.368;12.364;2022-10-19T09:20:13;13.60;99.90
15259;DHT22;34462;51.368;12.364;2022-10-19T09:22:46;13.70;99.90
15259;DHT22;34462;51.368;12.364;2022-10-19T09:25:24;13.90;99.90
15259;DHT22;34462;51.368;12.364;2022-10-19T09:28:02;13.90;99.90
15259;DHT22;34462;51.368;12.364;2022-10-19T09:30:41;13.90;99.90
15259;DHT22;34462;51.368;12.364;2022-10-19T09:33:16;14.10;99.90
15259;DHT22;34462;51.368;12.364;2022-10-19T09:35:51;14.10;99.90
15259;DHT22;34462;51.368;12.364;2022-10-19T09:38:24;14.30;99.90
15259;DHT22;34462;51.368;12.364;2022-10-19T09:40:56;14.30;99.90
15259;DHT22;34462;51.368;12.364;2022-10-19T09:43:25;14.40;99.90
15259;DHT22;34462;51.368;12.364;2022-10-19T09:45:56;14.40;99.90
15259;DHT22;34462;51.368;12.364;2022-10-19T09:48:48;14.40;99.90
15259;DHT22;34462;51.368;12.364;2022-10-19T09:51:18;14.30;99.90
15259;DHT22;34462;51.368;12.364;2022-10-19T09:53:50;14.20;99.90
15259;DHT22;34462;51.368;12.364;2022-10-19T09:56:21;14.20;99.90
15259;DHT22;34462;51.368;12.364;2022-10-19T09:58:52;14.30;99.90
15259;DHT22;34462;51.368;12.364;2022-10-19T10:01:31;14.30;99.90
15259;DHT22;34462;51.368;12.364;2022-10-19T10:04:09;14.20;99.90
15259;DHT22;34462;51.368;12.364;2022-10-19T10:06:43;14.30;99.90
15259;DHT22;34462;51.368;12.364;2022-10-19T10:09:16;14.20;99.90
15259;DHT22;34462;51.368;12.364;2022-10-19T10:11:47;14.30;99.90
15259;DHT22;34462;51.368;12.364;2022-10-19T10:14:19;14.30;99.90
15259;DHT22;34462;51.368;12.364;2022-10-19T10:16:53;14.20;99.90
15259;DHT22;34462;51.368;12.364;2022-10-19T10:19:26;14.20;99.90
15259;DHT22;34462;51.368;12.364;2022-10-19T10:21:57;14.20;99.90
15259;DHT22;34462;51.368;12.364;2022-10-19T10:24:29;14.20;99.90
15259;DHT22;34462;51.368;12.364;2022-10-19T10:27:00;14.30;99.90
15259;DHT22;34462;51.368;12.364;2022-10-19T10:29:31;14.30;99.90
15259;DHT22;34462;51.368;12.364;2022-10-19T10:32:04;14.40;99.90
15259;DHT22;34462;51.368;12.364;2022-10-19T10:34:37;14.20;99.90
15259;DHT22;34462;51.368;12.364;2022-10-19T10:37:29;14.10;99.90
15259;DHT22;34462;51.368;12.364;2022-10-19T10:40:18;14.00;99.90
15259;DHT22;34462;51.368;12.364;2022-10-19T10:42:50;14.00;99.90
15259;DHT22;34462;51.368;12.364;2022-10-19T10:45:24;14.00;99.90
15259;DHT22;34462;51.368;12.364;2022-10-19T10:47:56;13.90;99.90
15259;DHT22;34462;51.368;12.364;2022-10-19T10:50:32;14.10;99.90
15259;DHT22;34462;51.368;12.364;2022-10-19T10:53:04;14.00;99.90
15259;DHT22;34462;51.368;12.364;2022-10-19T10:55:35;14.10;99.90
15259;DHT22;34462;51.368;12.364;2022-10-19T10:58:12;14.20;99.90
15259;DHT22;34462;51.368;12.364;2022-10-19T11:00:47;14.30;99.90
15259;DHT22;34462;51.368;12.364;2022-10-19T11:03:22;14.30;99.90
15259;DHT22;34462;51.368;12.364;2022-10-19T11:05:56;14.50;99.90
15259;DHT22;34462;51.368;12.364;2022-10-19T11:08:28;14.50;99.90
15259;DHT22;34462;51.368;12.364;2022-10-19T11:11:09;14.40;99.90
15259;DHT22;34462;51.368;12.364;2022-10-19T11:13:44;14.40;99.90
15259;DHT22;34462;51.368;12.364;2022-10-19T11:16:20;14.50;99.90
15259;DHT22;34462;51.368;12.364;2022-10-19T11:18:57;14.60;99.90
15259;DHT22;34462;51.368;12.364;2022-10-19T11:21:36;14.50;99.90
15259;DHT22;34462;51.368;12.364;2022-10-19T11:24:14;14.50;99.90
15259;DHT22;34462;51.368;12.364;2022-10-19T11:27:00;14.40;99.90
15259;DHT22;34462;51.368;12.364;2022-10-19T11:29:49;14.50;99.90
15259;DHT22;34462;51.368;12.364;2022-10-19T11:32:38;14.40;99.90
15259;DHT22;34462;51.368;12.364;2022-10-19T11:35:24;14.30;99.90
15259;DHT22;34462;51.368;12.364;2022-10-19T11:38:11;14.20;99.90
15259;DHT22;34462;51.368;12.364;2022-10-19T11:41:06;14.10;99.90
15259;DHT22;34462;51.368;12.364;2022-10-19T11:46:56;14.40;99.90
15259;DHT22;34462;51.368;12.364;2022-10-19T11:49:48;14.50;99.90
15259;DHT22;34462;51.368;12.364;2022-10-19T11:52:31;14.70;99.90
15259;DHT22;34462;51.368;12.364;2022-10-19T11:55:19;14.70;99.90
15259;DHT22;34462;51.368;12.364;2022-10-19T11:58:01;14.70;99.90
15259;DHT22;34462;51.368;12.364;2022-10-19T12:00:48;14.60;99.90
15259;DHT22;34462;51.368;12.364;2022-10-19T12:03:40;14.50;99.90
15259;DHT22;34462;51.368;12.364;2022-10-19T12:06:30;14.50;99.90
15259;DHT22;34462;51.368;12.364;2022-10-19T12:09:23;14.40;99.90
15259;DHT22;34462;51.368;12.364;2022-10-19T12:12:08;14.30;99.90
15259;DHT22;34462;51.368;12.364;2022-10-19T12:14:50;14.10;99.90
15259;DHT22;34462;51.368;12.364;2022-10-19T12:17:24;14.00;99.90
15259;DHT22;34462;51.368;12.364;2022-10-19T12:19:59;13.90;99.90
15259;DHT22;34462;51.368;12.364;2022-10-19T12:22:33;13.90;99.90
15259;DHT22;34462;51.368;12.364;2022-10-19T12:25:04;13.80;99.90
15259;DHT22;34462;51.368;12.364;2022-10-19T12:27:35;13.70;99.90
15259;DHT22;34462;51.368;12.364;2022-10-19T12:30:07;13.70;99.90
15259;DHT22;34462;51.368;12.364;2022-10-19T12:32:51;13.70;99.90
15259;DHT22;34462;51.368;12.364;2022-10-19T12:38:38;13.60;99.90
15259;DHT22;34462;51.368;12.364;2022-10-19T12:41:22;13.50;99.90
15259;DHT22;34462;51.368;12.364;2022-10-19T12:44:03;13.40;99.90
15259;DHT22;34462;51.368;12.364;2022-10-19T12:46:44;13.30;99.90
15259;DHT22;34462;51.368;12.364;2022-10-19T12:49:51;13.30;99.90
15259;DHT22;34462;51.368;12.364;2022-10-19T12:52:37;13.40;99.90
15259;DHT22;34462;51.368;12.364;2022-10-19T12:55:11;13.40;99.90
15259;DHT22;34462;51.368;12.364;2022-10-19T12:57:58;13.40;99.90
15259;DHT22;34462;51.368;12.364;2022-10-19T13:00:31;13.40;99.90
15259;DHT22;34462;51.368;12.364;2022-10-19T13:03:04;13.40;99.90
15259;DHT22;34462;51.368;12.364;2022-10-19T13:05:38;13.50;99.90
15259;DHT22;34462;51.368;12.364;2022-10-19T13:08:07;13.70;99.90
15259;DHT22;34462;51.368;12.364;2022-10-19T13:10:40;13.60;99.90
15259;DHT22;34462;51.368;12.364;2022-10-19T13:19:28;13.70;99.90
15259;DHT22;34462;51.368;12.364;2022-10-19T13:25:23;13.60;99.90
15259;DHT22;34462;51.368;12.364;2022-10-19T13:27:55;13.60;99.90
15259;DHT22;34462;51.368;12.364;2022-10-19T13:30:59;13.60;99.90
15259;DHT22;34462;51.368;12.364;2022-10-19T13:33:44;13.60;99.90
15259;DHT22;34462;51.368;12.364;2022-10-19T13:36:14;13.60;99.90
15259;DHT22;34462;51.368;12.364;2022-10-19T13:38:45;13.50;99.90
15259;DHT22;34462;51.368;12.364;2022-10-19T13:41:45;13.50;99.90
15259;DHT22;34462;51.368;12.364;2022-10-19T13:44:33;13.40;99.90
15259;DHT22;34462;51.368;12.364;2022-10-19T13:47:17;13.40;99.90
15259;DHT22;34462;51.368;12.364;2022-10-19T13:50:13;13.40;99.90
15259;DHT22;34462;51.368;12.364;2022-10-19T13:56:34;13.30;99.90
15259;DHT22;34462;51.368;12.364;2022-10-19T13:59:40;13.30;99.90
15259;DHT22;34462;51.368;12.364;2022-10-19T14:02:49;13.40;99.90
15259;DHT22;34462;51.368;12.364;2022-10-19T14:05:53;13.20;99.90
15259;DHT22;34462;51.368;12.364;2022-10-19T14:12:07;13.20;99.90
15259;DHT22;34462;51.368;12.364;2022-10-19T14:14:43;13.10;99.90
15259;DHT22;34462;51.368;12.364;2022-10-19T14:17:16;13.10;99.90
15259;DHT22;34462;51.368;12.364;2022-10-19T14:19:47;13.00;99.90
15259;DHT22;34462;51.368;12.364;2022-10-19T14:22:19;13.10;99.90
15259;DHT22;34462;51.368;12.364;2022-10-19T14:24:51;13.00;99.90
15259;DHT22;34462;51.368;12.364;2022-10-19T14:27:29;13.00;99.90
15259;DHT22;34462;51.368;12.364;2022-10-19T14:29:57;12.70;99.90
15259;DHT22;34462;51.368;12.364;2022-10-19T14:32:27;12.80;99.90
15259;DHT22;34462;51.368;12.364;2022-10-19T14:35:03;12.90;99.90
15259;DHT22;34462;51.368;12.364;2022-10-19T14:37:44;12.90;99.90
15259;DHT22;34462;51.368;12.364;2022-10-19T14:40:25;12.90;99.90
15259;DHT22;34462;51.368;12.364;2022-10-19T14:42:57;12.90;99.90
15259;DHT22;34462;51.368;12.364;2022-10-19T14:45:27;12.80;99.90
15259;DHT22;34462;51.368;12.364;2022-10-19T14:47:58;12.80;99.90
15259;DHT22;34462;51.368;12.364;2022-10-19T14:50:34;12.70;99.90
15259;DHT22;34462;51.368;12.364;2022-10-19T14:53:20;12.70;99.90
15259;DHT22;34462;51.368;12.364;2022-10-19T14:55:59;12.60;99.90
15259;DHT22;34462;51.368;12.364;2022-10-19T14:58:37;12.60;99.90
15259;DHT22;34462;51.368;12.364;2022-10-19T15:01:09;12.50;99.90
15259;DHT22;34462;51.368;12.364;2022-10-19T15:03:40;12.50;99.90
15259;DHT22;34462;51.368;12.364;2022-10-19T15:06:17;12.50;99.90
15259;DHT22;34462;51.368;12.364;2022-10-19T15:08:50;12.40;99.90
15259;DHT22;34462;51.368;12.364;2022-10-19T15:11:27;12.30;99.90
15259;DHT22;34462;51.368;12.364;2022-10-19T15:14:01;12.50;99.90
15259;DHT22;34462;51.368;12.364;2022-10-19T15:16:41;12.50;99.90
15259;DHT22;34462;51.368;12.364;2022-10-19T15:19:17;12.50;99.90
15259;DHT22;34462;51.368;12.364;2022-10-19T15:22:05;12.30;99.90
15259;DHT22;34462;51.368;12.364;2022-10-19T15:24:39;12.30;99.90
15259;DHT22;34462;51.368;12.364;2022-10-19T15:27:27;12.20;99.90
15259;DHT22;34462;51.368;12.364;2022-10-19T15:30:00;12.20;99.90
15259;DHT22;34462;51.368;12.364;2022-10-19T15:32:34;12.10;99.90
15259;DHT22;34462;51.368;12.364;2022-10-19T15:35:09;12.10;99.90
15259;DHT22;34462;51.368;12.364;2022-10-19T15:37:41;12.00;99.90
15259;DHT22;34462;51.368;12.364;2022-10-19T15:40:12;11.90;99.90
15259;DHT22;34462;51.368;12.364;2022-10-19T15:42:46;11.90;99.90
15259;DHT22;34462;51.368;12.364;2022-10-19T15:45:31;11.90;99.90
15259;DHT22;34462;51.368;12.364;2022-10-19T15:48:23;11.80;99.90
15259;DHT22;34462;51.368;12.364;2022-10-19T15:50:55;11.80;99.90
15259;DHT22;34462;51.368;12.364;2022-10-19T15:53:24;11.90;99.90
15259;DHT22;34462;51.368;12.364;2022-10-19T15:55:52;11.80;99.90
15259;DHT22;34462;51.368;12.364;2022-10-19T15:58:20;11.80;99.90
15259;DHT22;34462;51.368;12.364;2022-10-19T16:00:50;11.70;99.90
15259;DHT22;34462;51.368;12.364;2022-10-19T16:03:18;11.60;99.90
15259;DHT22;34462;51.368;12.364;2022-10-19T16:05:46;11.60;99.90
15259;DHT22;34462;51.368;12.364;2022-10-19T16:08:14;11.60;99.90
15259;DHT22;34462;51.368;12.364;2022-10-19T16:10:42;11.50;99.90
15259;DHT22;34462;51.368;12.364;2022-10-19T16:13:10;11.50;99.90
15259;DHT22;34462;51.368;12.364;2022-10-19T16:15:38;11.50;99.90
15259;DHT22;34462;51.368;12.364;2022-10-19T16:18:09;11.40;99.90
15259;DHT22;34462;51.368;12.364;2022-10-19T16:20:37;11.40;99.90
15259;DHT22;34462;51.368;12.364;2022-10-19T16:23:05;11.40;99.90
15259;DHT22;34462;51.368;12.364;2022-10-19T16:25:34;11.30;99.90
15259;DHT22;34462;51.368;12.364;2022-10-19T16:28:03;11.30;99.90